Time;durP1;ratioP1;P1;durP2;ratioP2;P2;SDS_P1;SDS_P2;PMS_P1;PMS_P2;Temp;Humidity;BMP_temperature;BMP_pressure;BME280_temperature;BME280_humidity;BME280_pressure;Samples;Min_cycle;Max_cycle;Signal;HPM_P1;HPM_P2
2021/03/20 00:00:17;;;;;;;19.45;9.45;;;;;;;-2.02;67.12;98878.84;5019585;28;20029;-73
2021/03/20 00:02:43;;;;;;;12.30;7.10;;;;;;;-2.06;67.75;98882.97;5015306;28;20026;-74
2021/03/20 00:05:09;;;;;;;16.77;8.18;;;;;;;-2.08;67.24;98885.03;5015270;28;20087;-74
2021/03/20 00:07:35;;;;;;;16.95;8.35;;;;;;;-2.10;67.34;98880.69;5024540;28;20108;-74
2021/03/20 00:10:01;;;;;;;18.38;7.05;;;;;;;-2.13;67.57;98882.97;5023762;28;20041;-74
2021/03/20 00:12:27;;;;;;;19.77;9.65;;;;;;;-2.19;67.66;98879.19;5024675;28;20044;-74
2021/03/20 00:14:52;;;;;;;20.65;9.20;;;;;;;-2.26;67.32;98887.25;5023671;28;20584;-74
2021/03/20 00:17:18;;;;;;;16.83;7.97;;;;;;;-2.27;67.48;98882.91;5023979;28;20032;-73
2021/03/20 00:19:43;;;;;;;15.70;7.88;;;;;;;-2.28;67.32;98896.56;5023648;28;20045;-74
2021/03/20 00:22:08;;;;;;;20.60;9.15;;;;;;;-2.31;67.46;98895.09;5015215;28;20533;-74
2021/03/20 00:24:34;;;;;;;17.73;9.32;;;;;;;-2.31;67.74;98899.66;5014483;28;20041;-74
2021/03/20 00:26:59;;;;;;;22.77;10.85;;;;;;;-2.35;67.92;98891.16;5019813;28;20037;-74
2021/03/20 00:29:25;;;;;;;21.33;9.00;;;;;;;-2.34;67.88;98897.34;5024578;28;20059;-74
2021/03/20 00:31:50;;;;;;;16.02;8.75;;;;;;;-2.37;67.29;98895.88;5023212;28;20033;-73
2021/03/20 00:34:15;;;;;;;15.77;8.25;;;;;;;-2.36;67.64;98902.09;5025539;28;20029;-73
2021/03/20 00:36:41;;;;;;;16.15;8.35;;;;;;;-2.37;67.09;98897.75;5025453;28;20377;-73
2021/03/20 00:39:07;;;;;;;16.17;8.60;;;;;;;-2.34;67.30;98902.72;5023753;28;20586;-74
2021/03/20 00:41:34;;;;;;;19.35;9.32;;;;;;;-2.29;67.37;98902.97;5021982;28;20029;-74
2021/03/20 00:43:59;;;;;;;16.85;7.60;;;;;;;-2.31;67.25;98908.53;5017179;28;20626;-73
2021/03/20 00:46:25;;;;;;;18.55;8.18;;;;;;;-2.34;67.05;98910.78;5021398;28;20029;-74
2021/03/20 00:48:50;;;;;;;23.85;10.27;;;;;;;-2.35;66.70;98906.44;5027668;28;20041;-73
2021/03/20 00:51:15;;;;;;;22.42;10.13;;;;;;;-2.34;66.58;98905.41;5028059;28;20543;-74
2021/03/20 00:53:41;;;;;;;18.17;8.48;;;;;;;-2.32;66.29;98911.41;5040424;28;20039;-74
2021/03/20 00:56:06;;;;;;;21.25;9.38;;;;;;;-2.31;66.43;98913.09;5028602;28;20043;-74
2021/03/20 00:58:36;;;;;;;18.60;9.85;;;;;;;-2.28;66.34;98915.38;5028575;28;20029;-74
2021/03/20 01:01:05;;;;;;;18.27;7.90;;;;;;;-2.30;66.09;98904.00;5028521;28;20179;-73
2021/03/20 01:03:31;;;;;;;21.17;8.90;;;;;;;-2.34;66.04;98916.16;5024046;28;20958;-75
2021/03/20 01:05:56;;;;;;;17.95;8.30;;;;;;;-2.34;66.31;98913.47;5020528;28;20513;-74
2021/03/20 01:08:22;;;;;;;19.02;8.88;;;;;;;-2.34;65.79;98922.34;5023099;28;20036;-75
2021/03/20 01:10:49;;;;;;;20.08;7.97;;;;;;;-2.36;65.76;98920.91;5027423;28;20530;-73
2021/03/20 01:13:17;;;;;;;20.25;8.40;;;;;;;-2.42;65.93;98925.22;5028007;28;20065;-74
2021/03/20 01:15:43;;;;;;;19.58;9.48;;;;;;;-2.40;66.30;98924.00;5028584;28;20033;-75
2021/03/20 01:18:08;;;;;;;12.00;5.78;;;;;;;-2.40;65.74;98925.84;5028418;28;20029;-75
2021/03/20 01:20:34;;;;;;;16.58;8.00;;;;;;;-2.47;65.54;98927.69;5026623;28;20598;-74
2021/03/20 01:23:00;;;;;;;17.15;7.63;;;;;;;-2.48;65.94;98923.34;5029647;28;20057;-74
2021/03/20 01:25:26;;;;;;;13.82;7.10;;;;;;;-2.49;65.33;98917.13;5020208;28;20029;-75
2021/03/20 01:27:53;;;;;;;15.52;7.80;;;;;;;-2.49;65.65;98922.50;5019478;28;20305;-75
2021/03/20 01:30:28;;;;;;;12.68;6.43;;;;;;;-2.46;65.60;98927.47;5024169;28;20474;-74
2021/03/20 01:32:53;;;;;;;16.23;6.10;;;;;;;-2.49;64.89;98927.06;5027779;28;20885;-74
2021/03/20 01:35:20;;;;;;;9.75;4.78;;;;;;;-2.52;64.32;98935.50;5030106;28;20056;-74
2021/03/20 01:37:46;;;;;;;15.07;7.00;;;;;;;-2.56;63.93;98932.38;5028923;28;20033;-75
2021/03/20 01:40:15;;;;;;;21.23;8.65;;;;;;;-2.66;63.02;98932.75;5027489;28;20052;-75
2021/03/20 01:42:43;;;;;;;13.80;6.33;;;;;;;-2.75;63.11;98940.16;5029410;28;20452;-74
2021/03/20 01:45:18;;;;;;;8.98;3.88;;;;;;;-2.80;62.17;98939.06;5022329;28;20294;-75
2021/03/20 01:47:52;;;;;;;22.98;7.70;;;;;;;-2.91;61.40;98938.59;5019619;28;20033;-74
2021/03/20 01:50:26;;;;;;;11.90;5.32;;;;;;;-2.94;60.95;98932.78;5019318;28;20537;-75
2021/03/20 01:52:56;;;;;;;11.55;4.30;;;;;;;-2.99;59.91;98939.56;5027369;28;20029;-75
2021/03/20 01:55:22;;;;;;;13.65;5.10;;;;;;;-3.04;60.27;98949.25;5029595;28;20043;-75
2021/03/20 01:57:51;;;;;;;24.25;7.63;;;;;;;-3.06;60.10;98940.56;5028758;28;20020;-74
2021/03/20 02:00:20;;;;;;;9.45;4.60;;;;;;;-3.10;59.92;98945.50;5027533;28;20034;-75
2021/03/20 02:02:45;;;;;;;10.95;4.47;;;;;;;-3.11;60.17;98951.03;5026981;28;20493;-75
2021/03/20 02:05:15;;;;;;;7.50;4.07;;;;;;;-3.09;60.25;98949.84;5027175;28;20092;-75
2021/03/20 02:07:41;;;;;;;7.55;4.90;;;;;;;-3.14;59.99;98947.72;5019454;28;20025;-75
2021/03/20 02:10:07;;;;;;;9.85;3.92;;;;;;;-3.14;59.76;98942.34;5017253;28;20032;-75
2021/03/20 02:12:35;;;;;;;5.93;3.00;;;;;;;-3.17;59.71;98947.28;5024939;28;20029;-75
2021/03/20 02:15:07;;;;;;;10.02;4.22;;;;;;;-3.20;59.48;98945.81;5028310;28;20224;-75
2021/03/20 02:17:44;;;;;;;12.05;5.32;;;;;;;-3.22;60.14;98947.03;5027125;28;20034;-75
2021/03/20 02:20:32;;;;;;;9.43;3.90;;;;;;;-3.21;59.75;98951.38;5026907;28;20021;-74
2021/03/20 02:23:12;;;;;;;7.55;3.97;;;;;;;-3.24;60.01;98943.72;5028468;28;20566;-75
2021/03/20 02:25:55;;;;;;;10.95;4.57;;;;;;;-3.26;60.13;98943.09;5039059;28;20079;-74
2021/03/20 02:28:50;;;;;;;11.20;4.20;;;;;;;-3.30;60.12;98940.78;5018175;28;20669;-75
2021/03/20 02:31:43;;;;;;;9.73;3.38;;;;;;;-3.38;59.38;98948.16;5016290;28;20024;-74
2021/03/20 02:34:12;;;;;;;10.40;3.80;;;;;;;-3.38;59.66;98957.03;5027322;28;20136;-75
2021/03/20 02:36:53;;;;;;;12.07;5.38;;;;;;;-3.41;59.61;98960.09;5027922;28;20886;-75
2021/03/20 02:39:49;;;;;;;11.82;4.90;;;;;;;-3.47;59.16;98952.84;5026423;28;20025;-75
2021/03/20 02:42:44;;;;;;;19.33;8.35;;;;;;;-3.52;59.45;98964.13;5026036;28;20033;-74
2021/03/20 02:45:32;;;;;;;8.68;4.38;;;;;;;-3.56;59.17;98962.84;5038740;28;20417;-75
2021/03/20 02:48:20;;;;;;;12.98;5.75;;;;;;;-3.62;59.34;98967.13;5023488;28;20029;-75
2021/03/20 02:51:08;;;;;;;8.13;3.80;;;;;;;-3.64;59.80;98963.81;5018031;28;20040;-74
2021/03/20 02:53:38;;;;;;;11.27;4.70;;;;;;;-3.62;59.53;98979.69;5020795;28;20203;-74
2021/03/20 02:56:07;;;;;;;8.23;4.43;;;;;;;-3.60;59.82;98978.50;5026235;28;20629;-74
2021/03/20 02:58:42;;;;;;;6.70;3.33;;;;;;;-3.59;59.93;98972.13;5025081;28;20033;-74
2021/03/20 03:01:16;;;;;;;9.52;4.53;;;;;;;-3.58;59.85;98978.28;5026107;28;20519;-74
2021/03/20 03:03:44;;;;;;;13.40;5.18;;;;;;;-3.61;60.03;98984.88;5025428;28;20122;-74
2021/03/20 03:06:28;;;;;;;10.23;4.80;;;;;;;-3.64;59.71;98984.41;5026143;28;20033;-74
2021/03/20 03:09:00;;;;;;;9.50;4.22;;;;;;;-3.68;59.43;98988.53;5034775;28;20075;-74
2021/03/20 03:11:29;;;;;;;7.38;3.55;;;;;;;-3.72;59.12;98988.06;5017506;28;20033;-74
2021/03/20 03:14:02;;;;;;;26.85;9.93;;;;;;;-3.81;59.20;98987.34;5029337;28;20153;-74
2021/03/20 03:16:43;;;;;;;14.57;5.90;;;;;;;-3.86;59.04;98995.13;5025287;28;20116;-74
2021/03/20 03:19:14;;;;;;;11.13;5.28;;;;;;;-3.85;58.91;99003.97;5026754;28;20079;-75
2021/03/20 03:21:44;;;;;;;10.40;4.53;;;;;;;-3.88;59.14;99015.94;5025141;28;20037;-74
2021/03/20 03:24:16;;;;;;;14.00;5.60;;;;;;;-3.97;59.38;99006.34;5026934;28;20033;-74
2021/03/20 03:26:46;;;;;;;10.25;4.72;;;;;;;-3.99;59.29;99014.56;5025403;28;20389;-74
2021/03/20 03:29:20;;;;;;;11.63;4.57;;;;;;;-4.03;59.21;99010.59;5025138;28;20525;-74
2021/03/20 03:31:52;;;;;;;12.15;5.53;;;;;;;-4.05;59.40;99015.31;5016967;28;20063;-74
2021/03/20 03:34:26;;;;;;;13.45;5.68;;;;;;;-4.05;59.59;99016.13;5029312;28;20041;-75
2021/03/20 03:36:53;;;;;;;10.48;4.60;;;;;;;-4.03;59.63;99019.47;5024362;28;20069;-75
2021/03/20 03:39:24;;;;;;;9.00;5.00;;;;;;;-4.04;59.54;99019.66;5026984;28;20033;-75
2021/03/20 03:41:49;;;;;;;16.40;6.90;;;;;;;-4.08;59.76;99029.94;5024938;28;20033;-75
2021/03/20 03:44:15;;;;;;;10.40;5.20;;;;;;;-4.05;59.70;99032.22;5026715;28;20491;-75
2021/03/20 03:46:44;;;;;;;11.75;4.97;;;;;;;-4.08;59.57;99035.28;5025163;28;20034;-75
2021/03/20 03:49:12;;;;;;;8.17;3.30;;;;;;;-4.11;59.90;99032.13;5025727;28;20034;-75
2021/03/20 03:51:37;;;;;;;9.55;4.35;;;;;;;-4.08;59.47;99039.81;5021181;28;20059;-74
2021/03/20 03:54:04;;;;;;;8.63;3.95;;;;;;;-4.06;59.71;99032.41;5017825;28;20846;-74
2021/03/20 03:56:35;;;;;;;10.90;4.88;;;;;;;-4.01;60.01;99043.41;5018473;28;20032;-74
2021/03/20 03:59:14;;;;;;;9.50;4.07;;;;;;;-4.03;60.14;99046.25;5037731;28;20064;-74
2021/03/20 04:01:52;;;;;;;9.38;3.80;;;;;;;-4.06;59.87;99043.94;5043498;28;20033;-74
2021/03/20 04:04:45;;;;;;;7.18;4.28;;;;;;;-4.10;60.02;99055.22;5048647;28;20534;-74
2021/03/20 04:07:26;;;;;;;10.70;4.40;;;;;;;-4.09;60.13;99057.75;5048548;28;20060;-75
2021/03/20 04:10:23;;;;;;;12.75;5.68;;;;;;;-4.11;60.48;99065.13;5048269;28;20112;-74
2021/03/20 04:12:58;;;;;;;8.95;4.18;;;;;;;-4.08;60.31;99058.56;5042360;28;20037;-75
2021/03/20 04:15:35;;;;;;;16.02;4.65;;;;;;;-4.09;59.95;99068.47;5051031;28;20487;-75
2021/03/20 04:18:21;;;;;;;15.40;6.72;;;;;;;-4.06;60.13;99068.06;5048723;28;20056;-76
2021/03/20 04:21:09;;;;;;;13.20;6.28;;;;;;;-4.04;60.24;99071.38;5053465;28;20033;-75
2021/03/20 04:23:39;;;;;;;11.95;5.15;;;;;;;-3.97;60.33;99076.00;5053341;28;20415;-75
2021/03/20 04:26:11;;;;;;;;;;;;;;;-3.92;60.46;99078.97;5055560;28;20028;-74
2021/03/20 04:29:01;;;;;;;13.05;4.95;;;;;;;-3.90;59.92;99080.44;5053069;28;19913;-75
2021/03/20 04:31:45;;;;;;;9.20;4.80;;;;;;;-3.86;60.52;99085.41;5054174;28;20032;-75
2021/03/20 04:34:20;;;;;;;13.68;4.85;;;;;;;-3.88;60.56;99082.94;5055176;28;20025;-74
2021/03/20 04:36:56;;;;;;;12.30;4.45;;;;;;;-3.88;60.51;99080.25;5054238;28;20028;-75
2021/03/20 04:39:25;;;;;;;13.77;6.47;;;;;;;-3.91;60.73;99091.34;5052025;28;20028;-74
2021/03/20 04:41:52;;;;;;;11.25;5.07;;;;;;;-3.95;60.34;99085.53;5054421;28;20021;-75
2021/03/20 04:44:18;;;;;;;13.25;5.43;;;;;;;-3.93;60.13;99093.38;5053493;28;20021;-75
2021/03/20 04:46:45;;;;;;;10.88;5.93;;;;;;;-3.95;60.47;99090.03;5054633;28;20017;-74
2021/03/20 04:49:34;;;;;;;14.07;5.55;;;;;;;-3.96;60.15;99097.28;5054487;28;20032;-75
2021/03/20 04:52:17;;;;;;;14.35;7.07;;;;;;;-3.98;60.72;99093.94;5054006;28;20086;-74
2021/03/20 04:54:43;;;;;;;16.73;7.35;;;;;;;-4.01;60.69;99096.16;5052914;28;20423;-75
2021/03/20 04:57:08;;;;;;;22.58;9.65;;;;;;;-4.00;60.93;99098.66;5051470;28;20035;-75
2021/03/20 04:59:58;;;;;;;11.98;5.18;;;;;;;-3.98;60.66;99103.81;5054477;28;20502;-75
2021/03/20 05:02:30;;;;;;;14.57;6.95;;;;;;;-3.97;60.84;99102.78;5050745;28;20477;-74
2021/03/20 05:05:05;;;;;;;16.90;6.20;;;;;;;-3.98;61.07;99104.66;5050620;28;20037;-74
2021/03/20 05:07:33;;;;;;;17.80;8.98;;;;;;;-4.00;60.66;99117.41;5054136;28;20029;-74
2021/03/20 05:10:05;;;;;;;22.35;13.43;;;;;;;-3.99;61.01;99112.88;5054259;28;20052;-74
2021/03/20 05:12:31;;;;;;;88.20;35.15;;;;;;;-4.00;61.36;99114.72;5053856;28;20053;-75
2021/03/20 05:15:04;;;;;;;70.55;36.50;;;;;;;-4.03;60.96;99133.84;5054037;28;20503;-75
2021/03/20 05:17:32;;;;;;;39.08;12.68;;;;;;;-4.02;61.43;99135.53;5053723;28;20047;-75
2021/03/20 05:19:58;;;;;;;82.90;27.92;;;;;;;-4.02;60.97;99140.88;5052738;28;20469;-75
2021/03/20 05:22:32;;;;;;;81.47;33.17;;;;;;;-4.06;61.15;99136.91;5053433;28;20029;-75
2021/03/20 05:24:59;;;;;;;378.10;139.13;;;;;;;-4.03;61.35;99144.56;5051319;28;20036;-75
2021/03/20 05:27:28;;;;;;;366.17;137.48;;;;;;;-3.97;61.04;99143.84;5053120;28;20454;-74
2021/03/20 05:29:54;;;;;;;298.15;82.95;;;;;;;-3.90;60.90;99147.44;5051485;28;20415;-75
2021/03/20 05:32:38;;;;;;;238.55;54.10;;;;;;;-3.89;61.59;99149.13;5051771;28;20558;-75
2021/03/20 05:35:07;;;;;;;444.50;110.10;;;;;;;-3.89;61.41;99146.44;5052436;28;20021;-75
2021/03/20 05:37:36;;;;;;;221.13;52.90;;;;;;;-3.92;61.55;99154.84;5050887;28;21311;-74
2021/03/20 05:40:04;;;;;;;271.77;68.37;;;;;;;-3.93;61.13;99157.69;5050735;28;20029;-74
2021/03/20 05:42:45;;;;;;;247.20;52.72;;;;;;;-3.96;61.68;99158.91;5052295;28;20036;-74
2021/03/20 05:45:28;;;;;;;142.60;34.33;;;;;;;-3.99;61.08;99163.78;5053184;28;20439;-74
2021/03/20 05:48:19;;;;;;;181.00;41.15;;;;;;;-4.03;61.88;99169.50;5051486;28;20021;-75
2021/03/20 05:51:06;;;;;;;338.02;79.20;;;;;;;-4.12;61.30;99173.31;5028361;28;20138;-75
2021/03/20 05:53:52;;;;;;;65.55;18.50;;;;;;;-4.11;61.91;99180.34;5052168;28;20033;-75
2021/03/20 05:56:33;;;;;;;21.17;7.50;;;;;;;-4.10;61.47;99182.00;5050933;28;20051;-73
2021/03/20 05:59:01;;;;;;;89.55;22.92;;;;;;;-4.09;61.87;99182.81;5051174;28;20033;-74
2021/03/20 06:01:47;;;;;;;200.98;47.13;;;;;;;-4.02;61.66;99181.06;5052504;28;20056;-74
2021/03/20 06:04:35;;;;;;;185.15;41.13;;;;;;;-3.92;61.48;99181.63;5050182;28;20135;-75
2021/03/20 06:07:20;;;;;;;118.07;32.35;;;;;;;-3.81;61.96;99179.50;5051590;28;20057;-74
2021/03/20 06:09:59;;;;;;;143.52;39.10;;;;;;;-3.78;62.06;99181.81;5051820;28;20033;-74
2021/03/20 06:12:41;;;;;;;40.35;14.02;;;;;;;-3.70;61.56;99178.22;5052213;28;20041;-74
2021/03/20 06:15:17;;;;;;;210.50;54.97;;;;;;;-3.64;61.37;99186.34;5052320;28;20029;-75
2021/03/20 06:18:27;;;;;;;58.80;16.27;;;;;;;-3.55;61.47;99184.38;5049698;28;20021;-75
2021/03/20 06:21:02;;;;;;;110.18;32.35;;;;;;;-3.36;61.93;99185.66;5052428;28;20029;-75
2021/03/20 06:24:04;;;;;;;63.53;20.50;;;;;;;-3.23;61.13;99194.88;5050955;28;20480;-76
2021/03/20 06:26:39;;;;;;;59.17;18.55;;;;;;;-3.13;61.19;99200.78;5050319;28;20024;-75
2021/03/20 06:29:16;;;;;;;37.70;11.35;;;;;;;-3.12;61.02;99189.03;5051745;28;20025;-75
2021/03/20 06:31:47;;;;;;;28.20;11.13;;;;;;;-3.11;60.51;99189.88;5048569;28;20060;-74
2021/03/20 06:34:27;;;;;;;54.47;19.00;;;;;;;-3.12;60.82;99197.09;5050046;28;20017;-75
2021/03/20 06:37:01;;;;;;;138.45;42.85;;;;;;;-3.12;60.58;99199.78;5049485;28;20079;-73
2021/03/20 06:39:52;;;;;;;39.22;12.15;;;;;;;-3.12;60.60;99199.78;5050736;28;20051;-73
2021/03/20 06:42:25;;;;;;;50.53;16.27;;;;;;;-3.11;60.66;99203.28;5051502;28;20052;-73
2021/03/20 06:45:00;;;;;;;46.30;16.08;;;;;;;-3.11;60.38;99197.91;5048758;28;20070;-73
2021/03/20 06:47:29;;;;;;;72.53;23.08;;;;;;;-3.10;60.66;99205.78;5050110;28;20028;-72
2021/03/20 06:50:03;;;;;;;25.60;9.95;;;;;;;-3.09;60.16;99214.66;5050027;28;20041;-74
2021/03/20 06:52:31;;;;;;;30.85;11.18;;;;;;;-3.12;60.28;99215.03;5051771;28;20381;-74
2021/03/20 06:55:25;;;;;;;36.28;15.52;;;;;;;-3.09;60.43;99218.19;5052004;28;20045;-73
2021/03/20 06:57:51;;;;;;;33.13;15.43;;;;;;;-3.01;60.61;99218.06;5046915;28;20041;-75
2021/03/20 07:00:23;;;;;;;19.13;7.75;;;;;;;-2.95;60.22;99229.91;5049645;28;20086;-74
2021/03/20 07:03:05;;;;;;;28.60;11.15;;;;;;;-2.95;59.87;99224.53;5046945;28;20063;-75
2021/03/20 07:05:58;;;;;;;14.55;6.28;;;;;;;-2.93;60.25;99230.56;5049860;28;20036;-75
2021/03/20 07:08:23;;;;;;;16.80;7.03;;;;;;;-2.92;59.93;99226.00;5048980;28;20381;-75
2021/03/20 07:10:53;;;;;;;13.73;6.82;;;;;;;-2.92;59.66;99228.69;5050360;28;20028;-75
2021/03/20 07:13:23;;;;;;;30.75;11.93;;;;;;;-2.94;59.57;99228.03;5051198;28;20381;-75
2021/03/20 07:16:08;;;;;;;23.90;10.20;;;;;;;-3.02;59.77;99235.19;5050098;28;20374;-74
2021/03/20 07:18:36;;;;;;;22.58;10.90;;;;;;;-3.05;58.79;99230.19;5047165;28;20036;-74
2021/03/20 07:21:17;;;;;;;21.23;12.10;;;;;;;-3.07;59.32;99239.47;5053187;28;20025;-74
2021/03/20 07:24:10;;;;;;;70.47;28.23;;;;;;;-3.10;59.29;99235.31;5041957;28;20108;-74
2021/03/20 07:26:52;;;;;;;36.33;14.85;;;;;;;-3.06;59.24;99239.28;5048487;28;20045;-75
2021/03/20 07:29:20;;;;;;;45.67;14.15;;;;;;;-3.01;59.38;99244.06;5033969;28;20048;-75
2021/03/20 07:31:59;;;;;;;41.13;11.40;;;;;;;-3.06;59.17;99236.59;5046114;28;20051;-75
2021/03/20 07:34:29;;;;;;;58.28;17.98;;;;;;;-3.06;59.05;99239.28;5053257;28;20463;-75
2021/03/20 07:37:17;;;;;;;101.57;28.50;;;;;;;-3.06;59.30;99241.97;5050958;28;20025;-75
2021/03/20 07:39:46;;;;;;;40.15;12.57;;;;;;;-3.05;59.61;99242.78;5049520;28;20067;-75
2021/03/20 07:42:29;;;;;;;51.47;15.15;;;;;;;-3.03;59.51;99246.94;5047204;28;20605;-75
2021/03/20 07:45:19;;;;;;;51.28;19.58;;;;;;;-3.02;58.84;99251.28;5038583;28;20361;-75
2021/03/20 07:47:53;;;;;;;22.40;10.55;;;;;;;-2.97;59.33;99249.88;5051516;28;20028;-75
2021/03/20 07:50:18;;;;;;;45.67;13.95;;;;;;;-2.90;59.35;99248.13;5052201;28;20021;-75
2021/03/20 07:52:45;;;;;;;19.75;7.88;;;;;;;-2.84;59.16;99255.41;5050521;28;20029;-76
2021/03/20 07:55:23;;;;;;;31.65;10.25;;;;;;;-2.78;58.63;99262.72;5037472;28;20039;-76
2021/03/20 07:57:54;;;;;;;13.02;5.47;;;;;;;-2.71;58.75;99263.63;5041069;28;20048;-75
2021/03/20 08:00:30;;;;;;;21.23;6.38;;;;;;;-2.63;58.49;99257.31;5048675;28;20108;-74
2021/03/20 08:03:13;;;;;;;31.27;10.82;;;;;;;-2.54;58.04;99263.38;5052059;28;20048;-75
2021/03/20 08:05:39;;;;;;;19.48;8.15;;;;;;;-2.51;58.45;99262.19;5048159;28;20044;-77
2021/03/20 08:08:25;;;;;;;13.68;6.53;;;;;;;-2.46;57.92;99267.81;5037368;28;20032;-75
2021/03/20 08:10:56;;;;;;;10.85;5.82;;;;;;;-2.43;57.84;99265.56;5042614;28;20025;-75
2021/03/20 08:13:24;;;;;;;13.00;6.38;;;;;;;-2.37;57.70;99263.13;5051941;28;20032;-75
2021/03/20 08:15:56;;;;;;;16.25;7.47;;;;;;;-2.30;57.38;99272.91;5063361;28;20112;-75
2021/03/20 08:18:26;;;;;;;15.77;6.60;;;;;;;-2.17;57.28;99263.31;5052472;28;20078;-74
2021/03/20 08:21:13;;;;;;;18.95;8.70;;;;;;;-2.06;57.38;99260.13;5050988;28;20029;-75
2021/03/20 08:24:12;;;;;;;15.20;6.43;;;;;;;-1.94;56.87;99260.41;5047759;28;20041;-76
2021/03/20 08:26:46;;;;;;;27.73;7.80;;;;;;;-1.83;56.84;99262.53;5048150;28;20029;-75
2021/03/20 08:29:14;;;;;;;22.75;7.93;;;;;;;-1.79;56.68;99257.63;5032222;28;20111;-75
2021/03/20 08:32:07;;;;;;;11.38;4.93;;;;;;;-1.75;55.63;99256.22;5038974;28;20029;-75
2021/03/20 08:34:50;;;;;;;13.48;5.28;;;;;;;-1.78;55.06;99267.34;5042813;28;20044;-74
2021/03/20 08:37:36;;;;;;;12.02;7.47;;;;;;;-1.82;54.30;99268.75;5044516;28;20060;-74
2021/03/20 08:40:18;;;;;;;18.70;8.20;;;;;;;-1.75;54.69;99269.66;5049065;28;20035;-74
2021/03/20 08:42:59;;;;;;;19.75;9.23;;;;;;;-1.61;54.95;99265.19;5041850;28;20455;-74
2021/03/20 08:45:33;;;;;;;15.52;7.13;;;;;;;-1.42;53.91;99271.72;5042387;28;20083;-73
2021/03/20 08:48:10;;;;;;;40.55;14.20;;;;;;;-1.28;53.82;99267.25;5048734;28;20101;-74
2021/03/20 08:50:48;;;;;;;176.93;52.85;;;;;;;-1.14;53.72;99270.00;5049249;28;20037;-74
2021/03/20 08:53:26;;;;;;;587.90;258.30;;;;;;;-1.05;53.36;99274.22;5053290;28;20423;-74
2021/03/20 08:56:11;;;;;;;461.15;170.95;;;;;;;-0.92;53.07;99270.72;5058192;28;20048;-75
2021/03/20 08:58:36;;;;;;;193.52;59.83;;;;;;;-0.81;52.93;99266.63;5051253;28;20029;-73
2021/03/20 09:03:44;;;;;;;149.55;28.90;;;;;;;-0.56;52.43;99258.81;5110023;27;20354;-74
2021/03/20 09:06:32;;;;;;;14.65;4.85;;;;;;;-0.57;51.39;99264.41;5110103;28;20044;-74
2021/03/20 09:09:24;;;;;;;10.02;4.55;;;;;;;-0.60;50.25;99261.06;5121766;27;20025;-74
2021/03/20 09:11:56;;;;;;;11.32;5.05;;;;;;;-0.54;49.78;99266.69;5124806;28;20031;-73
2021/03/20 09:14:29;;;;;;;27.67;15.73;;;;;;;-0.49;50.47;99270.47;5130529;28;20378;-73
2021/03/20 09:17:00;;;;;;;24.15;13.73;;;;;;;-0.41;49.20;99277.50;5130835;27;20463;-74
2021/03/20 09:19:29;;;;;;;34.60;11.23;;;;;;;-0.41;49.21;99276.69;5130548;27;20024;-74
2021/03/20 09:21:59;;;;;;;10.98;4.32;;;;;;;-0.39;49.18;99271.91;5123466;27;20031;-74
2021/03/20 09:24:27;;;;;;;56.92;13.77;;;;;;;-0.40;48.57;99281.03;5130460;27;20536;-75
2021/03/20 09:26:57;;;;;;;30.80;7.70;;;;;;;-0.50;48.50;99268.78;5130409;27;20069;-74
2021/03/20 09:29:28;;;;;;;58.63;16.80;;;;;;;-0.44;48.42;99269.00;5130472;27;20023;-74
2021/03/20 09:31:53;;;;;;;125.75;31.75;;;;;;;-0.30;49.29;99267.97;5130086;27;20031;-76
2021/03/20 09:34:49;;;;;;;32.30;12.27;;;;;;;-0.10;49.42;99281.50;5130197;28;20041;-74
2021/03/20 09:37:18;;;;;;;27.95;10.52;;;;;;;0.13;49.21;99274.88;5112963;27;20387;-75
2021/03/20 09:39:52;;;;;;;11.85;5.70;;;;;;;0.16;47.29;99287.94;5129991;27;20031;-74
2021/03/20 09:42:24;;;;;;;7.88;3.22;;;;;;;-0.02;46.54;99281.28;5129846;27;20045;-74
2021/03/20 09:44:52;;;;;;;6.63;2.85;;;;;;;-0.23;47.02;99292.28;5123682;27;20016;-74
2021/03/20 09:47:50;;;;;;;14.48;4.90;;;;;;;-0.52;46.20;99280.78;5112910;28;20023;-74
2021/03/20 09:50:18;;;;;;;4.90;2.42;;;;;;;-0.50;46.29;99286.81;5109921;28;20032;-74
2021/03/20 09:53:06;;;;;;;21.10;9.82;;;;;;;-0.52;47.05;99288.88;5107631;28;20027;-73
2021/03/20 09:55:31;;;;;;;48.85;13.88;;;;;;;-0.44;47.42;99295.97;5107590;28;20103;-74
2021/03/20 09:58:18;;;;;;;16.77;6.53;;;;;;;-0.45;47.36;99295.13;5106334;28;20423;-74
2021/03/20 10:00:49;;;;;;;8.70;4.22;;;;;;;-0.54;46.09;99291.78;5104491;28;20471;-74
2021/03/20 10:03:43;;;;;;;7.32;4.28;;;;;;;-0.65;44.86;99300.44;5109980;28;20055;-74
2021/03/20 10:06:24;;;;;;;7.25;4.30;;;;;;;-0.68;44.99;99290.94;5092355;28;20022;-74
2021/03/20 10:09:22;;;;;;;10.07;4.15;;;;;;;-0.54;45.34;99282.84;5119832;28;20040;-73
2021/03/20 10:11:50;;;;;;;8.13;4.75;;;;;;;-0.41;45.80;99293.69;5106500;28;20047;-75
2021/03/20 10:14:32;;;;;;;8.00;4.43;;;;;;;-0.26;46.10;99288.09;5095868;28;20043;-75
2021/03/20 10:17:28;;;;;;;11.43;5.32;;;;;;;-0.16;45.76;99296.63;5084254;28;20074;-74
2021/03/20 10:20:15;;;;;;;4.47;1.98;;;;;;;-0.11;44.21;99304.09;5068933;28;20391;-74
2021/03/20 10:23:01;;;;;;;6.03;4.00;;;;;;;-0.11;43.14;99300.59;5087604;28;20035;-74
2021/03/20 10:25:30;;;;;;;7.90;3.88;;;;;;;0.03;42.61;99302.25;5088369;28;20476;-72
2021/03/20 10:28:02;;;;;;;54.53;14.52;;;;;;;0.17;43.43;99313.03;5093857;28;20020;-74
2021/03/20 10:30:31;;;;;;;5.30;3.05;;;;;;;0.28;42.59;99313.25;5097243;28;20033;-74
2021/03/20 10:32:59;;;;;;;16.30;5.68;;;;;;;0.37;44.10;99307.66;5085065;28;20024;-74
2021/03/20 10:35:26;;;;;;;9.55;4.75;;;;;;;0.48;43.90;99307.03;5091047;28;20082;-75
2021/03/20 10:37:51;;;;;;;13.93;6.35;;;;;;;0.62;43.82;99310.53;5093356;28;20083;-74
2021/03/20 10:40:26;;;;;;;11.55;4.60;;;;;;;0.60;41.88;99315.31;5093431;28;20099;-73
2021/03/20 10:42:58;;;;;;;7.93;5.38;;;;;;;0.38;40.65;99310.16;5088733;28;20472;-74
2021/03/20 10:45:39;;;;;;;7.07;3.15;;;;;;;0.16;39.40;99316.78;5094337;28;20020;-76
2021/03/20 10:48:13;;;;;;;10.45;7.35;;;;;;;-0.04;39.25;99317.59;5094665;28;20024;-75
2021/03/20 10:50:42;;;;;;;10.32;4.90;;;;;;;-0.18;40.16;99316.72;5090107;28;20028;-84
2021/03/20 10:53:21;;;;;;;27.92;15.85;;;;;;;-0.27;40.26;99308.00;5094418;28;20119;-74
2021/03/20 10:55:51;;;;;;;17.60;11.60;;;;;;;-0.30;40.01;99308.41;5094830;28;20031;-78
2021/03/20 10:58:40;;;;;;;6.53;3.60;;;;;;;-0.28;40.43;99309.03;5094819;28;20024;-78
2021/03/20 11:01:06;;;;;;;60.53;23.90;;;;;;;-0.22;41.19;99310.13;5081595;28;20032;-78
2021/03/20 11:03:37;;;;;;;51.33;23.17;;;;;;;-0.16;41.15;99307.41;5077634;28;20040;-79
2021/03/20 11:06:10;;;;;;;52.03;19.35;;;;;;;-0.09;41.05;99302.03;5078610;28;20020;-79
2021/03/20 11:08:36;;;;;;;88.68;33.05;;;;;;;-0.02;41.85;99296.66;5073008;28;20030;-79
2021/03/20 11:11:30;;;;;;;50.85;15.10;;;;;;;0.05;41.43;99302.88;5072720;28;20025;-79
2021/03/20 11:14:07;;;;;;;23.08;8.95;;;;;;;0.13;40.63;99297.28;5074202;28;20110;-79
2021/03/20 11:16:39;;;;;;;43.80;11.35;;;;;;;0.19;39.98;99294.78;5074336;28;20058;-77
2021/03/20 11:19:04;;;;;;;139.20;32.95;;;;;;;0.26;40.11;99309.94;5084621;28;20063;-80
2021/03/20 11:21:36;;;;;;;5.97;3.03;;;;;;;0.10;37.79;99304.97;5093014;28;20533;-78
2021/03/20 11:24:06;;;;;;;21.13;6.32;;;;;;;0.05;38.76;99296.66;5094289;28;20057;-78
2021/03/20 11:26:39;;;;;;;20.20;6.20;;;;;;;0.22;39.27;99297.88;5093135;28;20062;-78
2021/03/20 11:29:07;;;;;;;8.45;5.30;;;;;;;0.34;38.56;99292.72;5093838;28;20039;-78
2021/03/20 11:31:43;;;;;;;9.88;3.35;;;;;;;0.30;37.63;99294.16;5086352;28;20036;-78
2021/03/20 11:34:16;;;;;;;118.82;36.13;;;;;;;0.28;37.90;99291.66;5075840;28;20058;-80
2021/03/20 11:36:42;;;;;;;134.23;40.33;;;;;;;0.42;38.67;99297.06;5074730;28;20032;-79
2021/03/20 11:39:09;;;;;;;79.40;27.50;;;;;;;0.58;38.76;99293.94;5087313;28;20042;-79
2021/03/20 11:41:38;;;;;;;30.02;12.25;;;;;;;0.72;38.61;99288.50;5112747;28;20448;-80
2021/03/20 11:44:14;;;;;;;50.03;19.83;;;;;;;0.86;38.87;99283.88;5093212;28;20486;-80
2021/03/20 11:46:49;;;;;;;35.78;13.85;;;;;;;0.97;38.72;99285.94;5086473;28;20036;-78
2021/03/20 11:49:26;;;;;;;29.63;12.98;;;;;;;1.02;38.61;99280.72;5091103;28;20052;-79
2021/03/20 11:51:53;;;;;;;25.27;9.75;;;;;;;1.04;37.68;99285.91;5090105;28;20541;-79
2021/03/20 11:54:30;;;;;;;9.15;3.33;;;;;;;0.79;36.70;99286.59;5093887;28;20024;-78
2021/03/20 11:57:05;;;;;;;15.02;7.38;;;;;;;0.50;36.50;99286.06;5088288;28;20078;-78
2021/03/20 11:59:35;;;;;;;12.35;5.28;;;;;;;0.40;37.54;99272.16;5083709;28;20024;-78